Time;durP1;ratioP1;P1;durP2;ratioP2;P2;SDS_P1;SDS_P2;PMS_P1;PMS_P2;Temp;Humidity;BMP_temperature;BMP_pressure;BME280_temperature;BME280_humidity;BME280_pressure;Samples;Min_cycle;Max_cycle;Signal;HPM_P1;HPM_P2
2024/01/14 00:02:05;;;;;;;23.38;13.60;;;19.10;57.10;;;;;;4991104;28;20092;-79
2024/01/14 00:04:31;;;;;;;23.58;13.77;;;19.10;61.10;;;;;;5020765;28;20040;-79
2024/01/14 00:06:56;;;;;;;23.48;14.10;;;19.10;60.40;;;;;;5022257;28;20045;-79
2024/01/14 00:09:22;;;;;;;20.85;12.40;;;19.00;56.90;;;;;;5019664;28;20032;-78
2024/01/14 00:11:48;;;;;;;23.50;13.45;;;19.00;56.90;;;;;;5003245;28;20065;-78
2024/01/14 00:14:14;;;;;;;20.70;13.02;;;18.90;56.80;;;;;;5021791;28;20037;-79
2024/01/14 00:16:39;;;;;;;19.92;12.98;;;18.90;56.80;;;;;;5022389;28;20056;-78
2024/01/14 00:19:05;;;;;;;21.13;13.20;;;18.90;57.60;;;;;;5020964;28;20081;-78
2024/01/14 00:21:31;;;;;;;21.65;13.43;;;18.80;56.90;;;;;;5012257;28;20037;-78
2024/01/14 00:23:57;;;;;;;20.13;12.82;;;18.70;57.00;;;;;;5008453;28;20039;-78
2024/01/14 00:26:24;;;;;;;19.40;12.50;;;18.70;57.20;;;;;;5005430;28;20037;-77
2024/01/14 00:28:58;;;;;;;18.80;11.93;;;18.70;57.10;;;;;;5024344;28;20241;-78
2024/01/14 00:31:23;;;;;;;17.77;11.03;;;18.70;57.20;;;;;;4997771;28;20037;-87
2024/01/14 00:33:49;;;;;;;17.65;11.07;;;18.60;57.20;;;;;;5015419;28;20057;-87
2024/01/14 00:36:16;;;;;;;18.60;12.32;;;18.60;57.30;;;;;;5021084;28;20049;-86
2024/01/14 00:38:41;;;;;;;19.23;11.23;;;18.60;57.40;;;;;;4990888;28;20522;-85
2024/01/14 00:41:07;;;;;;;21.13;12.77;;;18.50;57.20;;;;;;5021314;28;20069;-86
2024/01/14 00:43:33;;;;;;;18.20;11.40;;;18.50;57.60;;;;;;5031481;28;20096;-85
2024/01/14 00:45:58;;;;;;;16.75;10.73;;;18.40;57.70;;;;;;4985546;28;20133;-86
2024/01/14 00:48:24;;;;;;;17.17;10.75;;;18.40;57.70;;;;;;5013315;28;20492;-84
2024/01/14 00:50:49;;;;;;;17.98;11.35;;;18.40;57.90;;;;;;5010966;28;20116;-85
2024/01/14 00:53:15;;;;;;;16.13;11.25;;;18.40;57.60;;;;;;5022224;28;20054;-87
2024/01/14 00:55:40;;;;;;;16.75;10.57;;;18.30;57.70;;;;;;5002514;28;20104;-86
2024/01/14 00:58:06;;;;;;;13.63;10.73;;;18.30;57.70;;;;;;4978808;28;20060;-86
2024/01/14 01:00:31;;;;;;;15.93;10.45;;;18.20;58.40;;;;;;5022167;28;20546;-86
2024/01/14 01:02:57;;;;;;;15.50;9.85;;;18.20;57.80;;;;;;5028211;28;20511;-87
2024/01/14 01:05:22;;;;;;;14.55;9.80;;;18.20;57.90;;;;;;5034841;28;20416;-87
2024/01/14 01:07:48;;;;;;;15.02;10.02;;;18.10;57.80;;;;;;5000063;28;20050;-87
2024/01/14 01:10:14;;;;;;;16.80;9.95;;;18.10;57.90;;;;;;5016312;28;20046;-87
2024/01/14 01:12:39;;;;;;;14.50;9.02;;;18.10;57.90;;;;;;4989894;28;20058;-82
2024/01/14 01:15:05;;;;;;;15.60;9.68;;;18.10;58.00;;;;;;5020743;28;20049;-82
2024/01/14 01:17:32;;;;;;;13.13;8.93;;;18.10;57.90;;;;;;5020280;28;20041;-82
2024/01/14 01:19:58;;;;;;;13.20;9.05;;;18.00;57.90;;;;;;5024236;28;20041;-82
2024/01/14 01:22:24;;;;;;;13.40;8.82;;;18.00;58.10;;;;;;5021165;28;20037;-82
2024/01/14 01:24:49;;;;;;;11.57;8.50;;;18.00;58.10;;;;;;5020709;28;20042;-82
2024/01/14 01:27:15;;;;;;;14.75;9.35;;;18.00;58.00;;;;;;4994770;28;20055;-82
2024/01/14 01:29:40;;;;;;;12.18;8.30;;;17.90;58.20;;;;;;5004184;28;20561;-82
2024/01/14 01:32:06;;;;;;;11.02;8.07;;;17.90;58.20;;;;;;4991777;28;20048;-82
2024/01/14 01:34:31;;;;;;;11.68;8.65;;;17.90;58.10;;;;;;5008288;28;20034;-82
2024/01/14 01:36:58;;;;;;;12.82;8.68;;;17.90;58.10;;;;;;5000704;28;20045;-83
2024/01/14 01:39:23;;;;;;;15.00;8.43;;;17.80;58.10;;;;;;5005498;28;20518;-84
2024/01/14 01:41:50;;;;;;;13.00;8.23;;;17.80;58.00;;;;;;4988993;28;20037;-85
2024/01/14 01:44:16;;;;;;;9.32;7.40;;;17.80;57.80;;;;;;5007973;28;20041;-85
2024/01/14 01:46:42;;;;;;;11.65;8.35;;;17.80;58.30;;;;;;5007083;28;20057;-86
2024/01/14 01:49:08;;;;;;;9.35;7.60;;;17.70;58.10;;;;;;4990945;28;20088;-86
2024/01/14 01:51:34;;;;;;;11.77;7.90;;;17.70;57.50;;;;;;4998430;28;20064;-86
2024/01/14 01:53:59;;;;;;;12.50;8.43;;;17.70;58.10;;;;;;4995127;28;20495;-86
2024/01/14 01:56:25;;;;;;;10.65;7.72;;;17.70;58.00;;;;;;5006208;28;20034;-86
2024/01/14 01:58:51;;;;;;;11.77;8.50;;;17.70;58.10;;;;;;5019958;28;20030;-86
2024/01/14 02:01:17;;;;;;;11.02;7.57;;;17.60;57.80;;;;;;5009655;28;20065;-86
2024/01/14 02:03:42;;;;;;;10.07;7.40;;;17.60;57.40;;;;;;5000887;28;20529;-86
2024/01/14 02:06:09;;;;;;;11.07;7.38;;;17.60;58.00;;;;;;5006519;28;20045;-87
2024/01/14 02:08:35;;;;;;;9.25;7.00;;;17.60;58.20;;;;;;4993840;28;20073;-86
2024/01/14 02:11:01;;;;;;;9.43;6.90;;;17.60;57.70;;;;;;5026146;28;20044;-87
2024/01/14 02:13:26;;;;;;;10.18;7.20;;;17.60;57.80;;;;;;4993924;28;20034;-86
2024/01/14 02:15:52;;;;;;;9.25;6.60;;;17.50;58.40;;;;;;5020956;28;20033;-87
2024/01/14 02:18:17;;;;;;;10.50;7.38;;;17.50;57.90;;;;;;5026120;28;20586;-86
2024/01/14 02:20:43;;;;;;;7.90;6.82;;;17.50;57.80;;;;;;5023871;28;20514;-85
2024/01/14 02:23:09;;;;;;;9.18;7.00;;;17.50;57.90;;;;;;5023317;28;20025;-87
2024/01/14 02:25:34;;;;;;;8.43;6.85;;;17.50;57.90;;;;;;5008076;28;20033;-85
2024/01/14 02:28:00;;;;;;;8.15;6.03;;;17.50;57.70;;;;;;5039080;28;20136;-86
2024/01/14 02:30:25;;;;;;;10.73;7.28;;;17.40;57.90;;;;;;5029171;28;20519;-84
2024/01/14 02:32:52;;;;;;;8.27;6.28;;;17.40;57.90;;;;;;5006805;28;20403;-85
2024/01/14 02:35:18;;;;;;;8.60;6.78;;;17.40;58.40;;;;;;5024629;28;20529;-87
2024/01/14 02:37:44;;;;;;;9.05;7.05;;;17.40;57.90;;;;;;5011841;28;20454;-87
2024/01/14 02:40:12;;;;;;;7.40;6.50;;;17.40;57.90;;;;;;5022599;28;20033;-87
2024/01/14 02:42:39;;;;;;;7.90;6.30;;;17.30;57.90;;;;;;5024951;28;20037;-87
2024/01/14 02:45:05;;;;;;;7.82;6.75;;;17.30;57.90;;;;;;4992173;28;20039;-86
2024/01/14 02:47:31;;;;;;;7.13;6.20;;;17.30;57.90;;;;;;5024440;28;20065;-85
2024/01/14 02:49:56;;;;;;;6.57;5.95;;;17.30;58.00;;;;;;5026044;28;20037;-86
2024/01/14 02:52:22;;;;;;;8.75;6.30;;;17.30;58.00;;;;;;5023705;28;20045;-86
2024/01/14 02:54:48;;;;;;;8.10;6.35;;;17.30;58.00;;;;;;5023004;28;20049;-86
2024/01/14 02:57:13;;;;;;;6.38;5.35;;;17.30;58.00;;;;;;5006379;28;20064;-87
2024/01/14 02:59:39;;;;;;;6.93;5.93;;;17.30;58.70;;;;;;5037432;28;20411;-82
2024/01/14 03:02:04;;;;;;;6.35;5.70;;;17.20;58.10;;;;;;5024629;28;20069;-83
2024/01/14 03:04:30;;;;;;;6.80;6.10;;;17.20;58.30;;;;;;5026285;28;20495;-86
2024/01/14 03:06:56;;;;;;;6.65;5.90;;;17.20;58.30;;;;;;5001652;28;20196;-86
2024/01/14 03:09:21;;;;;;;6.15;5.55;;;17.20;58.10;;;;;;5022613;28;20046;-85
2024/01/14 03:11:47;;;;;;;6.88;5.32;;;17.20;58.20;;;;;;4992258;28;20046;-85
2024/01/14 03:14:12;;;;;;;7.40;6.00;;;17.20;58.40;;;;;;5024206;28;20056;-84
2024/01/14 03:16:38;;;;;;;8.30;5.75;;;17.20;58.30;;;;;;4992155;28;20056;-86
2024/01/14 03:19:04;;;;;;;7.55;6.10;;;17.20;58.30;;;;;;5022044;28;20045;-86
2024/01/14 03:21:29;;;;;;;7.25;5.45;;;17.20;58.20;;;;;;5019316;28;20065;-86
2024/01/14 03:23:55;;;;;;;7.13;5.72;;;17.10;58.30;;;;;;5002316;28;20050;-87
2024/01/14 03:26:20;;;;;;;6.15;5.55;;;17.10;58.40;;;;;;5016346;28;20042;-87
2024/01/14 03:28:46;;;;;;;6.40;5.78;;;17.10;58.40;;;;;;5007184;28;20045;-87
2024/01/14 03:31:15;;;;;;;6.35;5.55;;;17.10;58.40;;;;;;4993379;28;20515;-87
2024/01/14 03:33:44;;;;;;;6.10;5.50;;;17.10;58.60;;;;;;5023564;28;20153;-87
2024/01/14 03:36:15;;;;;;;6.15;5.55;;;17.10;58.60;;;;;;5018482;28;20050;-85
2024/01/14 03:38:41;;;;;;;6.35;5.43;;;17.00;58.50;;;;;;4992362;28;20041;-86
2024/01/14 03:41:07;;;;;;;6.10;5.10;;;17.00;58.50;;;;;;5007387;28;20042;-86
2024/01/14 03:43:32;;;;;;;5.75;5.10;;;17.00;58.50;;;;;;5021001;28;20058;-85
2024/01/14 03:45:58;;;;;;;7.32;5.30;;;17.00;58.50;;;;;;5022999;28;20490;-84
2024/01/14 03:48:23;;;;;;;5.55;4.95;;;17.00;58.60;;;;;;5021251;28;20049;-84
2024/01/14 03:50:49;;;;;;;5.55;4.97;;;17.00;58.60;;;;;;5008617;28;20038;-85
2024/01/14 03:53:14;;;;;;;6.35;5.40;;;17.00;58.70;;;;;;5006296;28;20078;-85
2024/01/14 03:55:40;;;;;;;5.55;4.97;;;17.00;58.60;;;;;;5041479;28;20620;-86
2024/01/14 03:58:06;;;;;;;5.70;5.00;;;17.00;58.60;;;;;;5011557;28;20518;-87
2024/01/14 04:00:31;;;;;;;5.63;4.72;;;17.00;58.60;;;;;;5004842;28;20502;-84
2024/01/14 04:02:57;;;;;;;5.20;4.75;;;17.00;58.50;;;;;;5023942;28;20040;-85
2024/01/14 04:05:23;;;;;;;5.30;4.80;;;16.90;58.60;;;;;;5021317;28;20048;-85
2024/01/14 04:07:49;;;;;;;5.65;4.45;;;16.90;58.60;;;;;;5020006;28;20045;-87
2024/01/14 04:10:16;;;;;;;4.63;4.22;;;16.90;58.40;;;;;;5023966;28;20045;-87
2024/01/14 04:12:41;;;;;;;5.90;5.28;;;16.90;58.50;;;;;;5003859;28;20365;-87
2024/01/14 04:15:07;;;;;;;4.78;4.38;;;16.90;59.10;;;;;;5016054;28;20052;-87
2024/01/14 04:17:33;;;;;;;5.25;4.45;;;16.90;58.60;;;;;;5023060;28;20025;-87
2024/01/14 04:20:00;;;;;;;6.72;4.75;;;16.90;58.50;;;;;;5021723;28;20053;-88
2024/01/14 04:22:25;;;;;;;5.20;4.70;;;16.90;59.20;;;;;;5024243;28;20029;-88
2024/01/14 04:24:51;;;;;;;4.97;4.57;;;16.90;58.60;;;;;;4991186;28;20048;-87
2024/01/14 04:27:16;;;;;;;5.35;4.82;;;16.80;58.50;;;;;;4992145;28;20038;-88
2024/01/14 04:29:42;;;;;;;4.85;4.45;;;16.90;58.60;;;;;;5020172;28;20537;-87
2024/01/14 04:32:07;;;;;;;5.10;4.70;;;16.80;58.50;;;;;;5023403;28;20494;-87
2024/01/14 04:34:33;;;;;;;4.70;4.30;;;16.80;58.50;;;;;;5005388;28;20069;-86
2024/01/14 04:36:59;;;;;;;5.28;4.45;;;16.80;59.50;;;;;;5023280;28;20045;-86
2024/01/14 04:39:25;;;;;;;4.95;4.53;;;16.80;59.80;;;;;;4997944;28;20049;-86
2024/01/14 04:41:50;;;;;;;4.70;4.30;;;16.80;60.20;;;;;;4985071;28;20104;-87
2024/01/14 04:44:16;;;;;;;4.82;4.43;;;16.80;60.60;;;;;;4991024;28;20420;-87
2024/01/14 04:46:42;;;;;;;4.82;4.20;;;16.80;60.90;;;;;;4992491;28;20480;-86
2024/01/14 04:49:08;;;;;;;4.55;4.15;;;16.80;61.10;;;;;;5006616;28;20498;-87
2024/01/14 04:51:34;;;;;;;4.65;4.25;;;16.80;61.30;;;;;;5022632;28;20142;-86
2024/01/14 04:54:00;;;;;;;4.63;4.22;;;16.80;60.60;;;;;;5019639;28;20135;-85
2024/01/14 04:56:25;;;;;;;4.45;4.05;;;16.80;61.50;;;;;;5005926;28;20572;-85
2024/01/14 04:58:51;;;;;;;4.88;4.45;;;16.80;61.20;;;;;;5024977;28;20037;-84
2024/01/14 05:01:16;;;;;;;4.40;4.07;;;16.80;60.30;;;;;;5017512;28;20041;-84
2024/01/14 05:03:43;;;;;;;5.00;4.47;;;16.80;60.80;;;;;;5018184;28;20503;-84
2024/01/14 05:06:08;;;;;;;5.10;4.60;;;16.80;60.60;;;;;;5019702;28;20041;-84
2024/01/14 05:08:34;;;;;;;4.00;3.70;;;16.70;60.30;;;;;;5018385;28;20029;-84
2024/01/14 05:10:59;;;;;;;3.78;3.47;;;16.80;60.20;;;;;;5021820;28;20045;-87
2024/01/14 05:13:25;;;;;;;4.15;3.85;;;16.80;60.20;;;;;;5018437;28;20045;-87
2024/01/14 05:15:50;;;;;;;4.10;3.75;;;16.70;59.90;;;;;;5022411;28;20042;-87
2024/01/14 05:18:16;;;;;;;4.95;4.55;;;16.70;59.70;;;;;;5020623;28;20033;-88
2024/01/14 05:20:42;;;;;;;3.72;3.42;;;16.80;59.70;;;;;;5006405;28;20037;-87
2024/01/14 05:23:08;;;;;;;3.42;3.22;;;16.70;59.70;;;;;;4988663;28;20037;-88
2024/01/14 05:25:34;;;;;;;4.20;3.90;;;16.70;59.60;;;;;;5004510;28;20496;-87
2024/01/14 05:27:59;;;;;;;3.83;3.42;;;16.70;59.70;;;;;;5026674;28;20057;-87
2024/01/14 05:30:25;;;;;;;3.65;3.35;;;16.70;59.60;;;;;;5024590;28;20041;-87
2024/01/14 05:32:50;;;;;;;4.15;3.85;;;16.70;60.30;;;;;;5022374;28;20580;-85
2024/01/14 05:35:16;;;;;;;3.85;3.65;;;16.70;59.60;;;;;;5022266;28;20051;-85
2024/01/14 05:37:41;;;;;;;3.63;3.35;;;16.70;60.30;;;;;;5028455;28;20038;-85
2024/01/14 05:40:08;;;;;;;3.58;3.28;;;16.70;59.70;;;;;;4992942;28;20069;-88
2024/01/14 05:42:34;;;;;;;3.88;3.58;;;16.70;59.70;;;;;;5021992;28;20037;-87
2024/01/14 05:44:59;;;;;;;3.63;3.33;;;16.60;59.80;;;;;;5006493;28;20045;-88
2024/01/14 05:47:25;;;;;;;3.55;3.25;;;16.60;59.70;;;;;;5025062;28;20053;-86
2024/01/14 05:49:51;;;;;;;4.10;3.80;;;16.60;59.70;;;;;;5026562;28;20487;-86
2024/01/14 05:52:16;;;;;;;4.05;3.75;;;16.60;59.60;;;;;;4992915;28;20513;-88
2024/01/14 05:54:44;;;;;;;3.40;3.17;;;16.60;60.40;;;;;;4993595;28;20033;-87
2024/01/14 05:57:10;;;;;;;3.60;3.40;;;16.60;59.80;;;;;;5010278;28;20037;-84
2024/01/14 05:59:36;;;;;;;3.25;3.05;;;16.60;59.70;;;;;;5008893;28;20585;-85
2024/01/14 06:02:02;;;;;;;4.00;3.70;;;16.60;59.70;;;;;;4977607;28;20049;-87
2024/01/14 06:04:27;;;;;;;3.38;3.17;;;16.60;59.70;;;;;;5026345;28;20045;-86
2024/01/14 06:06:53;;;;;;;3.65;3.40;;;16.50;59.70;;;;;;5023860;28;20044;-87
2024/01/14 06:09:18;;;;;;;3.72;3.42;;;16.50;59.80;;;;;;4998249;28;20427;-88
2024/01/14 06:11:44;;;;;;;3.35;3.15;;;16.50;59.70;;;;;;5025637;28;20118;-85
2024/01/14 06:14:10;;;;;;;3.20;2.90;;;16.50;59.70;;;;;;5026031;28;20510;-85
2024/01/14 06:16:39;;;;;;;3.40;3.20;;;16.50;59.80;;;;;;5026651;28;20578;-85
2024/01/14 06:19:04;;;;;;;3.22;2.92;;;16.50;59.80;;;;;;5008807;28;20079;-86
2024/01/14 06:21:30;;;;;;;3.33;3.03;;;16.50;59.70;;;;;;5022051;28;20045;-85
2024/01/14 06:23:56;;;;;;;3.45;3.17;;;16.50;60.50;;;;;;5005959;28;20022;-85
2024/01/14 06:26:21;;;;;;;3.28;3.08;;;16.50;59.70;;;;;;5024632;28;20042;-85
2024/01/14 06:28:47;;;;;;;3.25;3.05;;;16.50;59.70;;;;;;5027753;28;20568;-85
2024/01/14 06:31:12;;;;;;;2.80;2.60;;;16.50;59.70;;;;;;5023002;28;20045;-78
2024/01/14 06:33:38;;;;;;;3.53;3.22;;;16.50;59.70;;;;;;5023550;28;20033;-78
2024/01/14 06:36:05;;;;;;;3.40;3.20;;;16.50;59.80;;;;;;5001114;28;20052;-77
2024/01/14 06:38:30;;;;;;;3.50;3.30;;;16.40;59.70;;;;;;5022437;28;20068;-78
2024/01/14 06:40:56;;;;;;;2.78;2.63;;;16.50;59.70;;;;;;5023077;28;20057;-78
2024/01/14 06:43:21;;;;;;;2.83;2.58;;;16.40;59.60;;;;;;5023977;28;20044;-78
2024/01/14 06:45:48;;;;;;;3.20;3.00;;;16.40;59.60;;;;;;5022991;28;20091;-78
2024/01/14 06:48:13;;;;;;;3.00;2.80;;;16.40;59.70;;;;;;5024418;28;20477;-79
2024/01/14 06:50:39;;;;;;;3.28;3.08;;;16.40;59.70;;;;;;5004909;28;20507;-80
2024/01/14 06:53:04;;;;;;;3.20;3.00;;;16.40;59.70;;;;;;5004248;28;20567;-78
2024/01/14 06:55:30;;;;;;;3.17;2.97;;;16.40;59.70;;;;;;5019959;28;20476;-78
2024/01/14 06:57:55;;;;;;;2.90;2.70;;;16.40;60.40;;;;;;5020864;28;20052;-78
2024/01/14 07:00:21;;;;;;;3.33;3.13;;;16.40;59.60;;;;;;5024747;28;20134;-78
2024/01/14 07:02:47;;;;;;;3.10;2.90;;;16.40;59.70;;;;;;5005663;28;20044;-78
2024/01/14 07:05:12;;;;;;;3.00;2.80;;;16.30;59.60;;;;;;4988710;28;20072;-77
2024/01/14 07:07:38;;;;;;;3.40;3.20;;;16.40;59.70;;;;;;4992383;28;20514;-78
2024/01/14 07:10:04;;;;;;;2.88;2.67;;;16.30;59.60;;;;;;5006938;28;20478;-78
2024/01/14 07:12:30;;;;;;;2.60;2.50;;;16.30;59.60;;;;;;5009571;28;20050;-77
2024/01/14 07:14:56;;;;;;;3.10;2.90;;;16.30;59.60;;;;;;5022527;28;20042;-78
2024/01/14 07:17:21;;;;;;;3.28;3.08;;;16.30;59.60;;;;;;5020979;28;20046;-78
2024/01/14 07:19:47;;;;;;;2.42;2.33;;;16.30;59.70;;;;;;5024565;28;20127;-78
2024/01/14 07:22:13;;;;;;;2.90;2.70;;;16.30;59.60;;;;;;5021819;28;22059;-79
2024/01/14 07:24:38;;;;;;;3.22;3.03;;;16.30;59.70;;;;;;5021067;28;20503;-77
2024/01/14 07:27:04;;;;;;;3.30;3.10;;;16.30;59.60;;;;;;5021332;28;20033;-77
2024/01/14 07:29:30;;;;;;;2.80;2.60;;;16.30;59.70;;;;;;5021787;28;20490;-77
2024/01/14 07:31:56;;;;;;;2.53;2.30;;;16.30;59.80;;;;;;5013245;28;20088;-77
2024/01/14 07:34:22;;;;;;;2.90;2.70;;;16.20;60.20;;;;;;5019823;28;20550;-78
2024/01/14 07:36:47;;;;;;;2.63;2.42;;;16.30;59.60;;;;;;5006233;28;20724;-78
2024/01/14 07:39:13;;;;;;;2.60;2.50;;;16.30;59.60;;;;;;5008569;28;20045;-78
2024/01/14 07:41:41;;;;;;;3.10;2.90;;;16.20;59.70;;;;;;5022835;28;20073;-78
2024/01/14 07:44:07;;;;;;;3.10;2.90;;;16.20;59.60;;;;;;5021861;28;20551;-78
2024/01/14 07:46:32;;;;;;;2.42;2.33;;;16.20;59.60;;;;;;5023355;28;20045;-78
2024/01/14 07:48:58;;;;;;;3.05;2.85;;;16.20;59.70;;;;;;5021540;28;20117;-77
2024/01/14 07:51:25;;;;;;;2.70;2.55;;;16.30;59.70;;;;;;5021309;28;20103;-77
2024/01/14 07:53:51;;;;;;;2.92;2.72;;;16.20;59.60;;;;;;4991701;28;20037;-77
2024/01/14 07:56:18;;;;;;;3.28;3.00;;;16.20;59.70;;;;;;5020124;28;20045;-77
2024/01/14 07:58:43;;;;;;;2.85;2.65;;;16.20;60.90;;;;;;5022189;28;20115;-79
2024/01/14 08:01:09;;;;;;;3.03;2.83;;;16.20;60.20;;;;;;5022486;28;20518;-77
2024/01/14 08:03:35;;;;;;;7.40;6.78;;;16.20;59.90;;;;;;5020285;28;20132;-77
2024/01/14 08:06:01;;;;;;;7.28;6.63;;;16.30;60.20;;;;;;5020917;28;20051;-77
2024/01/14 08:08:27;;;;;;;4.95;4.65;;;16.30;61.00;;;;;;5022615;28;20434;-77
2024/01/14 08:10:53;;;;;;;3.53;3.22;;;16.30;60.60;;;;;;5025130;28;20560;-78
2024/01/14 08:13:18;;;;;;;3.80;2.70;;;16.40;61.00;;;;;;5024104;28;20512;-78
2024/01/14 08:15:44;;;;;;;3.22;3.03;;;16.50;60.80;;;;;;5022965;28;20042;-78
2024/01/14 08:18:10;;;;;;;3.20;3.00;;;16.50;61.40;;;;;;5005527;28;20069;-77
2024/01/14 08:20:35;;;;;;;3.78;2.80;;;16.60;62.90;;;;;;4989848;28;20033;-77
2024/01/14 08:23:01;;;;;;;2.88;2.65;;;16.70;62.80;;;;;;5007684;28;20093;-79
2024/01/14 08:25:27;;;;;;;5.88;2.67;;;16.80;61.90;;;;;;5023492;28;20041;-79
2024/01/14 08:27:52;;;;;;;2.75;2.55;;;16.80;61.80;;;;;;5020909;28;20050;-78
2024/01/14 08:30:18;;;;;;;2.95;2.72;;;16.90;61.70;;;;;;5006290;28;20045;-79
2024/01/14 08:32:44;;;;;;;4.15;2.78;;;17.10;61.70;;;;;;5013036;28;20052;-78
2024/01/14 08:35:11;;;;;;;5.13;2.70;;;17.10;61.60;;;;;;4986937;28;20045;-78
2024/01/14 08:37:36;;;;;;;3.67;2.92;;;17.20;61.70;;;;;;5017910;28;20033;-78
2024/01/14 08:40:02;;;;;;;3.20;2.90;;;17.30;61.30;;;;;;4981720;28;20411;-80
2024/01/14 08:42:28;;;;;;;2.47;2.28;;;17.30;61.40;;;;;;5015619;28;20066;-80
2024/01/14 08:44:53;;;;;;;4.35;2.58;;;17.40;61.00;;;;;;5001649;28;20519;-78
2024/01/14 08:47:19;;;;;;;4.45;2.70;;;17.40;61.50;;;;;;4985536;28;20127;-80
2024/01/14 08:49:45;;;;;;;3.05;2.70;;;17.50;61.40;;;;;;4998335;28;20048;-79
2024/01/14 08:52:11;;;;;;;3.47;2.70;;;17.50;61.40;;;;;;5018133;28;20045;-77
2024/01/14 08:54:37;;;;;;;4.40;2.85;;;17.60;61.30;;;;;;5021766;28;20030;-80
2024/01/14 08:57:03;;;;;;;2.70;2.50;;;17.70;61.00;;;;;;4993716;28;20566;-80
2024/01/14 08:59:28;;;;;;;4.80;2.72;;;17.80;61.10;;;;;;5022545;28;20046;-80
2024/01/14 09:01:54;;;;;;;3.67;2.72;;;18.00;61.00;;;;;;5019839;28;20087;-79
2024/01/14 09:04:19;;;;;;;3.30;2.25;;;18.00;61.30;;;;;;5004526;28;20041;-79
2024/01/14 09:06:45;;;;;;;3.53;2.92;;;18.10;61.50;;;;;;5016593;28;20092;-79
2024/01/14 09:09:11;;;;;;;3.58;2.42;;;18.10;61.30;;;;;;5015882;28;20049;-78
2024/01/14 09:11:37;;;;;;;2.60;2.40;;;18.20;61.50;;;;;;5017248;28;20069;-78
2024/01/14 09:14:03;;;;;;;6.15;2.65;;;18.30;61.00;;;;;;5021468;28;20072;-77
2024/01/14 09:16:28;;;;;;;4.15;3.58;;;18.50;60.90;;;;;;5024709;28;20134;-77
2024/01/14 09:18:54;;;;;;;2.50;2.40;;;18.60;61.50;;;;;;5000757;28;20525;-79
2024/01/14 09:21:19;;;;;;;3.20;2.90;;;18.60;61.70;;;;;;5035029;28;20050;-81
2024/01/14 09:23:45;;;;;;;2.70;2.50;;;18.60;61.20;;;;;;4989687;28;20520;-80
2024/01/14 09:26:10;;;;;;;3.42;2.45;;;18.60;61.20;;;;;;5051719;28;20045;-79
2024/01/14 09:28:36;;;;;;;2.88;2.50;;;18.70;61.90;;;;;;5016485;28;20048;-78
2024/01/14 09:31:02;;;;;;;3.33;2.80;;;18.60;61.10;;;;;;5003178;28;20093;-80
2024/01/14 09:33:28;;;;;;;3.85;2.47;;;18.70;61.10;;;;;;4976567;28;20114;-79
2024/01/14 09:35:55;;;;;;;4.75;2.45;;;18.70;61.00;;;;;;4998330;28;20044;-78
2024/01/14 09:38:21;;;;;;;3.75;2.75;;;18.80;61.10;;;;;;4985173;28;20104;-78
2024/01/14 09:40:53;;;;;;;3.08;2.42;;;18.80;61.30;;;;;;4987013;28;20401;-78
2024/01/14 09:43:19;;;;;;;4.90;2.60;;;18.90;61.20;;;;;;5008080;28;20528;-79
2024/01/14 09:45:45;;;;;;;3.15;2.85;;;18.90;61.40;;;;;;5000880;28;20034;-76
2024/01/14 09:48:14;;;;;;;6.30;2.88;;;18.90;61.50;;;;;;4998453;28;20116;-79
2024/01/14 09:50:40;;;;;;;3.65;2.30;;;19.00;61.00;;;;;;4997768;28;20631;-77
2024/01/14 09:53:09;;;;;;;2.85;2.65;;;19.10;61.00;;;;;;5004360;28;20180;-80
2024/01/14 09:55:35;;;;;;;4.10;2.45;;;19.10;60.90;;;;;;5019066;28;20148;-79
2024/01/14 09:58:01;;;;;;;2.33;2.15;;;19.20;61.00;;;;;;5011206;28;20034;-78
2024/01/14 10:00:26;;;;;;;7.70;2.65;;;19.20;60.60;;;;;;5022405;28;20041;-79
2024/01/14 10:02:52;;;;;;;6.78;2.53;;;19.10;60.30;;;;;;5004903;28;20042;-79
2024/01/14 10:05:17;;;;;;;3.20;2.60;;;19.00;60.20;;;;;;5002171;28;20065;-79
2024/01/14 10:07:44;;;;;;;5.82;2.53;;;19.00;60.20;;;;;;5007479;28;20096;-79
2024/01/14 10:10:10;;;;;;;3.67;2.40;;;19.00;60.20;;;;;;5022104;28;20053;-79
2024/01/14 10:12:36;;;;;;;2.95;2.70;;;19.00;59.90;;;;;;5021649;28;20053;-79
2024/01/14 10:15:02;;;;;;;3.55;2.83;;;19.00;59.80;;;;;;5025425;28;20135;-79
2024/01/14 10:17:29;;;;;;;2.67;2.13;;;18.90;59.80;;;;;;5021102;28;20164;-79
2024/01/14 10:19:55;;;;;;;3.55;2.65;;;18.90;59.70;;;;;;5026679;28;20099;-79
2024/01/14 10:22:23;;;;;;;2.75;2.55;;;18.90;59.60;;;;;;5027001;28;20053;-79
2024/01/14 10:24:51;;;;;;;3.88;2.40;;;18.90;59.50;;;;;;5023038;28;20049;-79
2024/01/14 10:27:17;;;;;;;2.78;2.40;;;18.90;59.50;;;;;;5009794;28;20061;-78
2024/01/14 10:29:42;;;;;;;2.47;2.38;;;18.80;59.50;;;;;;5016704;28;20522;-78
2024/01/14 10:32:08;;;;;;;4.57;2.53;;;18.90;59.20;;;;;;5024530;28;20097;-79
2024/01/14 10:34:34;;;;;;;2.40;2.20;;;18.80;59.30;;;;;;5009284;28;20140;-79
2024/01/14 10:37:03;;;;;;;2.90;2.70;;;18.80;60.00;;;;;;5006286;28;20046;-79
2024/01/14 10:39:32;;;;;;;2.13;2.03;;;18.70;59.20;;;;;;5025801;28;20034;-79
2024/01/14 10:41:58;;;;;;;2.75;2.60;;;18.70;59.40;;;;;;5022911;28;20490;-79
2024/01/14 10:44:24;;;;;;;2.42;2.22;;;18.70;59.20;;;;;;5025304;28;20049;-79
2024/01/14 10:46:51;;;;;;;3.75;2.60;;;18.70;59.10;;;;;;5025646;28;20040;-79
2024/01/14 10:49:17;;;;;;;2.67;2.47;;;18.60;59.40;;;;;;5015738;28;20867;-79
2024/01/14 10:51:42;;;;;;;2.63;2.33;;;18.70;59.70;;;;;;5024602;28;20037;-79
2024/01/14 10:54:29;;;;;;;2.50;2.38;;;18.60;59.10;;;;;;4988904;28;20045;-79
2024/01/14 10:57:03;;;;;;;2.40;2.17;;;18.60;59.10;;;;;;5019165;28;20041;-79
2024/01/14 10:59:29;;;;;;;;;;;18.60;59.20;;;;;;5022190;28;20046;-79
2024/01/14 11:01:55;;;;;;;2.22;2.13;;;18.60;59.10;;;;;;5022910;28;19917;-79
2024/01/14 11:04:21;;;;;;;2.30;2.10;;;18.60;59.00;;;;;;5024218;28;20519;-78
2024/01/14 11:06:47;;;;;;;3.10;2.50;;;18.60;59.00;;;;;;5022326;28;20042;-79
2024/01/14 11:09:12;;;;;;;2.95;2.53;;;18.50;59.20;;;;;;5022776;28;20096;-78
2024/01/14 11:11:57;;;;;;;2.53;2.40;;;18.50;59.00;;;;;;5003168;28;20041;-79
2024/01/14 11:14:34;;;;;;;3.13;2.70;;;18.50;59.10;;;;;;5039174;28;20041;-79
2024/01/14 11:17:15;;;;;;;2.95;2.17;;;18.40;59.10;;;;;;5054847;28;20495;-79
2024/01/14 11:19:41;;;;;;;2.80;2.60;;;18.40;59.00;;;;;;5003639;28;20049;-79
2024/01/14 11:22:06;;;;;;;2.53;2.10;;;18.40;58.90;;;;;;4986931;28;20044;-79
2024/01/14 11:24:32;;;;;;;2.72;2.53;;;18.40;58.90;;;;;;5006278;28;20071;-79
2024/01/14 11:26:57;;;;;;;2.45;2.33;;;18.40;58.80;;;;;;5004761;28;20045;-79
2024/01/14 11:29:36;;;;;;;2.45;2.15;;;18.40;58.80;;;;;;4991474;28;20037;-79
2024/01/14 11:32:19;;;;;;;2.00;1.90;;;18.40;58.80;;;;;;5024077;28;20033;-79
2024/01/14 11:34:44;;;;;;;3.63;2.42;;;18.40;58.80;;;;;;5024667;28;20530;-78
2024/01/14 11:37:10;;;;;;;2.25;2.15;;;18.40;58.70;;;;;;5036441;28;20068;-79
2024/01/14 11:39:36;;;;;;;2.22;2.03;;;18.40;58.60;;;;;;4984310;28;20045;-79
2024/01/14 11:42:03;;;;;;;2.10;2.00;;;18.40;58.80;;;;;;5023669;28;20041;-79
2024/01/14 11:44:32;;;;;;;2.58;2.38;;;18.40;58.80;;;;;;5008714;28;20072;-79
2024/01/14 11:46:57;;;;;;;2.08;1.98;;;18.30;58.60;;;;;;5021089;28;20037;-79
2024/01/14 11:49:23;;;;;;;2.55;2.35;;;18.30;58.70;;;;;;5024117;28;20064;-79
2024/01/14 11:52:02;;;;;;;2.20;2.10;;;18.20;58.70;;;;;;5008870;28;20030;-79
2024/01/14 11:54:27;;;;;;;2.42;2.33;;;18.30;58.70;;;;;;4994180;28;20086;-79
2024/01/14 11:56:53;;;;;;;2.20;2.08;;;18.20;58.60;;;;;;5024302;28;20037;-78
2024/01/14 11:59:19;;;;;;;3.05;2.10;;;18.20;58.70;;;;;;5022435;28;20033;-78
2024/01/14 12:01:44;;;;;;;2.70;2.30;;;18.20;58.70;;;;;;5026096;28;20030;-78
2024/01/14 12:04:10;;;;;;;2.08;1.95;;;18.20;58.80;;;;;;5020253;28;20037;-79
2024/01/14 12:06:45;;;;;;;2.17;2.03;;;18.20;58.70;;;;;;5025036;28;20048;-78
2024/01/14 12:09:14;;;;;;;2.72;2.15;;;18.20;58.70;;;;;;5005781;28;20045;-79
2024/01/14 12:11:41;;;;;;;2.25;2.15;;;18.10;58.70;;;;;;5023484;28;20046;-79
2024/01/14 12:14:06;;;;;;;2.25;2.05;;;18.10;58.70;;;;;;5024060;28;20523;-78
2024/01/14 12:16:32;;;;;;;2.08;1.98;;;18.10;58.70;;;;;;5025176;28;20041;-79
2024/01/14 12:18:58;;;;;;;2.03;1.92;;;18.10;58.70;;;;;;5019115;28;20033;-78
2024/01/14 12:21:23;;;;;;;3.45;2.10;;;18.10;58.70;;;;;;4983627;28;20415;-79
2024/01/14 12:23:50;;;;;;;2.00;1.90;;;18.10;58.70;;;;;;5022714;28;20499;-79
2024/01/14 12:26:15;;;;;;;1.75;1.65;;;18.00;58.80;;;;;;5020952;28;20033;-78
2024/01/14 12:28:41;;;;;;;2.22;2.13;;;18.00;58.70;;;;;;4992097;28;20037;-79
2024/01/14 12:31:06;;;;;;;1.95;1.77;;;18.00;58.60;;;;;;5002051;28;20034;-79
2024/01/14 12:33:33;;;;;;;1.83;1.73;;;18.00;58.70;;;;;;5005540;28;20029;-79
2024/01/14 12:35:59;;;;;;;2.85;2.20;;;18.00;58.60;;;;;;5022615;28;20083;-79
2024/01/14 12:38:24;;;;;;;2.08;1.98;;;17.90;58.60;;;;;;4988329;28;20124;-79
2024/01/14 12:40:50;;;;;;;2.33;2.15;;;17.90;58.60;;;;;;5025252;28;20483;-78